createdAt,value
2022-08-26T00:02:34.895Z,8.30
2022-08-26T00:07:33.717Z,12.70
2022-08-26T00:12:37.584Z,11.30
2022-08-26T00:17:33.464Z,9.30
2022-08-26T00:22:33.404Z,11.40
2022-08-26T00:27:33.358Z,9.60
2022-08-26T00:32:33.309Z,10.00
2022-08-26T00:37:33.256Z,10.20
2022-08-26T00:42:34.196Z,10.80
2022-08-26T00:47:33.149Z,14.20
2022-08-26T00:52:33.090Z,9.80
2022-08-26T00:57:33.041Z,10.50
2022-08-26T01:02:33.071Z,10.40
2022-08-26T01:07:32.940Z,11.70
2022-08-26T01:12:32.897Z,13.80
2022-08-26T01:17:33.806Z,13.50
2022-08-26T01:22:32.757Z,13.10
2022-08-26T01:27:32.947Z,12.00
2022-08-26T01:32:32.691Z,9.50
2022-08-26T01:37:32.589Z,9.40
2022-08-26T01:42:32.562Z,16.20
2022-08-26T01:47:32.493Z,9.70
2022-08-26T01:52:32.453Z,11.30
2022-08-26T01:57:32.383Z,10.00
2022-08-26T02:02:32.343Z,10.50
2022-08-26T02:07:33.331Z,13.80
2022-08-26T02:12:32.302Z,10.40
2022-08-26T02:17:32.148Z,12.20
2022-08-26T02:22:33.116Z,14.40
2022-08-26T02:27:32.618Z,10.70
2022-08-26T02:32:32.062Z,11.10
2022-08-26T02:37:32.036Z,12.40
2022-08-26T02:42:31.918Z,14.20
2022-08-26T02:47:32.364Z,17.20
2022-08-26T02:52:31.789Z,18.70
2022-08-26T02:57:31.726Z,19.50
2022-08-26T03:02:31.701Z,20.70
2022-08-26T03:07:31.614Z,24.10
2022-08-26T03:12:31.568Z,26.80
2022-08-26T03:17:31.503Z,27.80
2022-08-26T03:22:31.444Z,39.10
2022-08-26T03:27:31.403Z,45.40
2022-08-26T03:32:31.335Z,38.20
2022-08-26T03:37:31.306Z,44.20
2022-08-26T03:42:31.222Z,38.20
2022-08-26T03:47:31.262Z,35.80
2022-08-26T03:52:31.216Z,45.00
2022-08-26T03:57:31.177Z,50.30
2022-08-26T04:02:31.032Z,54.40
2022-08-26T04:07:31.935Z,57.30
2022-08-26T04:12:30.947Z,63.40
2022-08-26T04:17:30.849Z,71.80
2022-08-26T04:22:30.844Z,69.90
2022-08-26T04:27:30.742Z,71.60
2022-08-26T04:32:30.715Z,78.50
2022-08-26T04:37:30.669Z,81.90
2022-08-26T04:42:34.242Z,85.40
2022-08-26T04:47:32.358Z,88.80
2022-08-26T04:52:31.018Z,66.90
2022-08-26T04:57:30.391Z,63.90
2022-08-26T05:02:30.347Z,73.60
2022-08-26T05:07:30.397Z,66.20
2022-08-26T05:12:30.297Z,71.80
2022-08-26T05:17:30.410Z,79.20
2022-08-26T05:22:30.399Z,73.10
2022-08-26T05:27:30.231Z,78.10
2022-08-26T05:32:30.275Z,75.20
2022-08-26T05:39:03.916Z,68.90
2022-08-26T05:44:03.862Z,68.70
2022-08-26T05:49:03.926Z,72.50
2022-08-26T05:54:03.845Z,70.90
2022-08-26T05:59:03.803Z,68.00
2022-08-26T06:04:03.723Z,60.30
2022-08-26T06:09:03.652Z,60.30
2022-08-26T06:14:04.307Z,59.90
2022-08-26T06:19:03.527Z,56.20
2022-08-26T06:24:04.424Z,55.20
2022-08-26T06:29:03.497Z,55.90
2022-08-26T06:34:07.267Z,50.10
2022-08-26T06:39:04.366Z,50.40
2022-08-26T06:44:03.216Z,45.50
2022-08-26T06:49:03.224Z,55.10
2022-08-26T06:54:03.123Z,53.10
2022-08-26T06:59:03.056Z,52.70
2022-08-26T07:04:03.011Z,51.30
2022-08-26T07:09:03.407Z,55.20
2022-08-26T07:14:02.903Z,59.60
2022-08-26T07:19:03.441Z,55.50
2022-08-26T07:24:03.787Z,49.80
2022-08-26T07:29:02.737Z,58.90
2022-08-26T07:34:02.671Z,48.90
2022-08-26T07:39:02.646Z,54.30
2022-08-26T07:44:02.562Z,49.90
2022-08-26T07:49:02.625Z,53.10
2022-08-26T07:54:02.478Z,57.50
2022-08-26T07:59:02.439Z,67.80
2022-08-26T08:04:02.447Z,66.20
2022-08-26T08:09:02.329Z,69.30
2022-08-26T08:14:03.280Z,66.50
2022-08-26T08:19:03.708Z,64.20
2022-08-26T08:24:03.251Z,62.90
2022-08-26T08:29:02.122Z,60.70
2022-08-26T08:34:02.109Z,64.50
2022-08-26T08:39:01.979Z,64.60
2022-08-26T08:44:01.943Z,72.70
2022-08-26T08:49:01.885Z,73.80
2022-08-26T08:54:01.811Z,68.60
2022-08-26T08:59:01.763Z,74.70
2022-08-26T09:04:01.703Z,67.20
2022-08-26T09:09:01.653Z,72.70
2022-08-26T09:14:01.607Z,67.30
2022-08-26T09:19:01.548Z,62.70
2022-08-26T09:24:01.489Z,64.70
2022-08-26T09:29:01.453Z,65.50
2022-08-26T09:34:01.377Z,61.30
2022-08-26T09:39:01.333Z,55.40
2022-08-26T09:44:01.270Z,58.80
2022-08-26T09:49:01.228Z,49.70
2022-08-26T09:54:01.164Z,48.80
2022-08-26T09:59:01.141Z,35.60
2022-08-26T10:04:01.108Z,33.10
2022-08-26T10:09:02.735Z,20.10
2022-08-26T10:14:00.986Z,23.50
2022-08-26T10:19:00.928Z,19.60
2022-08-26T10:24:00.919Z,18.30
2022-08-26T10:29:00.833Z,17.80
2022-08-26T10:34:00.857Z,20.20
2022-08-26T10:39:00.722Z,20.70
2022-08-26T10:44:00.753Z,19.50
2022-08-26T10:49:00.699Z,15.70
2022-08-26T10:54:00.551Z,14.70
2022-08-26T10:59:01.591Z,17.50
2022-08-26T11:04:00.638Z,17.10
2022-08-26T11:09:00.397Z,18.20
2022-08-26T11:14:00.356Z,16.30
2022-08-26T11:19:00.290Z,17.10
2022-08-26T11:24:00.234Z,18.20
2022-08-26T11:29:00.200Z,14.70
2022-08-26T11:34:00.239Z,18.30
2022-08-26T11:39:08.968Z,17.30
2022-08-26T11:44:00.053Z,21.50
2022-08-26T11:49:00.011Z,21.40
2022-08-26T11:53:59.964Z,18.00
2022-08-26T11:59:00.932Z,13.50
2022-08-26T12:03:59.973Z,19.20
2022-08-26T12:08:59.804Z,14.30
2022-08-26T12:13:59.760Z,17.40
2022-08-26T12:18:59.694Z,12.70
2022-08-26T12:23:59.628Z,13.60
2022-08-26T12:28:59.622Z,16.40
2022-08-26T12:33:59.545Z,13.10
2022-08-26T12:38:59.509Z,12.60
2022-08-26T12:43:59.442Z,16.90
2022-08-26T12:48:59.395Z,14.60
2022-08-26T12:53:59.335Z,11.90
2022-08-26T12:58:59.258Z,14.30
2022-08-26T13:03:59.205Z,18.10
2022-08-26T13:08:59.168Z,15.60
2022-08-26T13:13:59.088Z,16.00
2022-08-26T13:18:59.090Z,13.70
2022-08-26T13:23:59.089Z,12.00
2022-08-26T13:29:01.446Z,10.40
2022-08-26T13:33:59.046Z,8.90
2022-08-26T13:38:58.864Z,12.10
2022-08-26T13:43:59.533Z,10.70
2022-08-26T13:48:59.931Z,10.10
2022-08-26T13:53:58.690Z,9.90
2022-08-26T13:58:58.694Z,10.70
2022-08-26T14:03:58.706Z,12.70
2022-08-26T14:08:58.559Z,12.00
2022-08-26T14:13:58.498Z,15.10
2022-08-26T14:18:58.438Z,11.30
2022-08-26T14:24:00.927Z,11.10
2022-08-26T14:28:58.431Z,11.30
2022-08-26T14:33:58.309Z,11.90
2022-08-26T14:38:58.231Z,9.30
2022-08-26T14:43:58.189Z,13.20
2022-08-26T14:49:02.060Z,11.60
2022-08-26T14:53:58.031Z,10.00
2022-08-26T14:58:58.025Z,8.80
2022-08-26T15:03:57.965Z,13.40
2022-08-26T15:08:57.886Z,12.10
2022-08-26T15:13:57.840Z,9.70
2022-08-26T15:18:57.893Z,10.20
2022-08-26T15:23:57.836Z,15.40
2022-08-26T15:29:00.760Z,8.60
2022-08-26T15:33:58.646Z,10.90
2022-08-26T15:38:57.591Z,7.50
2022-08-26T15:43:57.513Z,9.90
2022-08-26T15:48:57.440Z,16.80
2022-08-26T15:53:57.379Z,12.70
2022-08-26T15:58:57.326Z,14.10
2022-08-26T16:03:57.332Z,16.10
2022-08-26T16:08:58.327Z,12.90
2022-08-26T16:13:57.311Z,14.70
2022-08-26T16:18:57.140Z,13.40
2022-08-26T16:23:57.078Z,11.20
2022-08-26T16:28:57.034Z,12.00
2022-08-26T16:33:56.994Z,11.10
2022-08-26T16:38:56.922Z,14.40
2022-08-26T16:43:56.860Z,9.90
2022-08-26T16:48:56.917Z,10.30
2022-08-26T16:53:56.875Z,12.50
2022-08-26T16:58:56.710Z,8.70
2022-08-26T17:03:56.760Z,8.20
2022-08-26T17:08:56.608Z,9.00
2022-08-26T17:13:56.564Z,12.10
2022-08-26T17:18:56.487Z,8.00
2022-08-26T17:23:56.442Z,9.30
2022-08-26T17:28:56.452Z,15.80
2022-08-26T17:33:56.388Z,18.70
2022-08-26T17:40:06.695Z,12.80
2022-08-26T17:45:06.725Z,11.40
2022-08-26T17:50:06.515Z,10.90
2022-08-26T17:55:06.540Z,10.40
2022-08-26T18:00:06.445Z,10.70
2022-08-26T18:05:06.350Z,10.80
2022-08-26T18:10:08.216Z,11.20
2022-08-26T18:15:07.238Z,7.70
2022-08-26T18:20:06.195Z,6.30
2022-08-26T18:25:06.106Z,9.00
2022-08-26T18:30:06.100Z,15.30
2022-08-26T18:35:06.090Z,11.70
2022-08-26T18:40:06.058Z,10.00
2022-08-26T18:45:05.956Z,16.20
2022-08-26T18:50:05.870Z,8.50
2022-08-26T18:55:05.815Z,9.40
2022-08-26T19:00:05.773Z,12.80
2022-08-26T19:05:05.690Z,9.60
2022-08-26T19:10:05.630Z,11.10
2022-08-26T19:15:05.597Z,11.40
2022-08-26T19:20:05.511Z,10.60
2022-08-26T19:25:05.492Z,11.50
2022-08-26T19:30:05.455Z,11.20
2022-08-26T19:35:05.415Z,11.80
2022-08-26T19:40:06.429Z,16.30
2022-08-26T19:45:05.266Z,12.10
2022-08-26T19:50:05.217Z,11.50
2022-08-26T19:55:05.150Z,15.10
2022-08-26T20:00:05.084Z,8.90
2022-08-26T20:05:05.026Z,12.20
2022-08-26T20:10:04.987Z,13.40
2022-08-26T20:15:05.018Z,12.10
2022-08-26T20:20:04.871Z,8.90
2022-08-26T20:25:05.824Z,9.70
2022-08-26T20:30:04.769Z,12.60
2022-08-26T20:35:04.777Z,11.30
2022-08-26T20:40:04.693Z,12.10
2022-08-26T20:45:04.577Z,13.50
2022-08-26T20:50:04.540Z,11.00
2022-08-26T20:55:04.661Z,10.50
2022-08-26T21:00:04.486Z,10.60
2022-08-26T21:05:04.436Z,12.60
2022-08-26T21:10:04.310Z,10.30
2022-08-26T21:15:04.273Z,11.60
2022-08-26T21:20:04.203Z,14.50
2022-08-26T21:25:04.129Z,10.90
2022-08-26T21:30:04.077Z,13.30
2022-08-26T21:35:04.034Z,11.80
2022-08-26T21:40:04.204Z,21.70
2022-08-26T21:45:03.954Z,14.90
2022-08-26T21:50:03.985Z,18.30
2022-08-26T21:55:03.933Z,13.20
2022-08-26T22:00:04.942Z,12.10
2022-08-26T22:05:03.671Z,15.20
2022-08-26T22:10:03.694Z,13.10
2022-08-26T22:15:03.684Z,18.00
2022-08-26T22:20:03.623Z,13.60
2022-08-26T22:25:03.496Z,15.00
2022-08-26T22:30:03.502Z,15.10
2022-08-26T22:35:03.375Z,12.90
2022-08-26T22:40:04.379Z,19.70
2022-08-26T22:45:03.256Z,12.40
2022-08-26T22:50:03.215Z,11.30
2022-08-26T22:55:03.134Z,12.20
2022-08-26T23:00:04.177Z,13.10
2022-08-26T23:05:03.185Z,16.00
2022-08-26T23:10:02.992Z,16.70
2022-08-26T23:15:03.063Z,18.60
2022-08-26T23:20:02.876Z,15.20
2022-08-26T23:25:02.836Z,18.10
2022-08-26T23:30:02.782Z,18.10
2022-08-26T23:35:02.850Z,17.10
2022-08-26T23:40:02.708Z,19.20
2022-08-26T23:45:11.518Z,20.60
2022-08-26T23:50:02.606Z,14.90
2022-08-26T23:55:02.520Z,16.30
